createdAt,value
2023-03-26T00:01:21.683Z,9.60
2023-03-26T00:03:53.585Z,9.07
2023-03-26T00:06:31.880Z,9.50
2023-03-26T00:08:58.863Z,7.73
2023-03-26T00:11:27.905Z,9.50
2023-03-26T00:13:58.675Z,13.17
2023-03-26T00:16:28.397Z,11.87
2023-03-26T00:18:55.631Z,7.60
2023-03-26T00:21:28.988Z,8.57
2023-03-26T00:23:59.725Z,10.60
2023-03-26T00:26:31.248Z,10.43
2023-03-26T00:29:00.122Z,10.63
2023-03-26T00:31:27.208Z,9.67
2023-03-26T00:33:57.765Z,10.60
2023-03-26T00:36:26.741Z,9.90
2023-03-26T00:38:54.327Z,10.03
2023-03-26T00:41:25.563Z,10.77
2023-03-26T00:43:56.369Z,9.53
2023-03-26T00:46:25.554Z,10.93
2023-03-26T00:48:52.643Z,10.40
2023-03-26T00:51:20.918Z,11.87
2023-03-26T00:53:49.647Z,12.60
2023-03-26T00:56:16.774Z,9.57
2023-03-26T00:58:43.609Z,8.07
2023-03-26T01:01:13.966Z,10.40
2023-03-26T01:03:50.366Z,7.93
2023-03-26T01:06:35.749Z,9.17
2023-03-26T01:09:11.509Z,8.57
2023-03-26T01:11:38.137Z,12.73
2023-03-26T01:14:07.310Z,9.40
2023-03-26T01:16:38.990Z,9.27
2023-03-26T01:19:44.809Z,10.67
2023-03-26T01:22:20.863Z,11.37
2023-03-26T01:24:53.107Z,11.27
2023-03-26T01:27:27.930Z,10.53
2023-03-26T01:29:58.745Z,10.43
2023-03-26T01:32:34.637Z,11.80
2023-03-26T01:35:24.218Z,9.13
2023-03-26T01:38:01.954Z,9.27
2023-03-26T01:40:42.914Z,7.10
2023-03-26T01:43:36.414Z,10.70
2023-03-26T01:46:06.712Z,8.13
2023-03-26T01:48:39.591Z,8.03
2023-03-26T01:51:08.369Z,11.73
2023-03-26T01:53:42.231Z,13.37
2023-03-26T01:56:26.539Z,12.70
2023-03-26T01:58:53.276Z,14.17
2023-03-26T02:01:54.836Z,11.50
2023-03-26T02:04:26.384Z,10.53
2023-03-26T02:07:05.709Z,15.90
2023-03-26T02:09:37.820Z,12.20
2023-03-26T02:12:06.565Z,9.43
2023-03-26T02:14:34.306Z,11.60
2023-03-26T02:17:00.949Z,12.90
2023-03-26T02:19:27.616Z,10.33
2023-03-26T02:21:59.690Z,10.80
2023-03-26T02:24:27.617Z,11.10
2023-03-26T02:26:58.057Z,8.50
2023-03-26T02:29:26.880Z,8.57
2023-03-26T02:31:54.198Z,12.97
2023-03-26T02:34:21.226Z,10.30
2023-03-26T02:36:52.812Z,8.50
2023-03-26T02:39:19.549Z,11.33
2023-03-26T02:41:54.445Z,13.13
2023-03-26T02:44:21.102Z,11.00
2023-03-26T02:46:59.714Z,7.40
2023-03-26T02:49:45.127Z,13.13
2023-03-26T02:52:18.656Z,9.87
2023-03-26T02:54:47.361Z,9.73
2023-03-26T02:57:23.789Z,8.33
2023-03-26T03:00:15.076Z,10.20
2023-03-26T03:02:47.892Z,7.23
2023-03-26T03:05:46.996Z,11.07
2023-03-26T03:08:13.787Z,7.93
2023-03-26T03:11:04.162Z,9.60
2023-03-26T03:13:39.068Z,9.33
2023-03-26T03:16:06.821Z,10.13
2023-03-26T03:18:33.623Z,10.57
2023-03-26T03:21:00.963Z,12.00
2023-03-26T03:23:27.590Z,11.00
2023-03-26T03:26:04.010Z,9.10
2023-03-26T03:28:32.480Z,9.33
2023-03-26T03:30:59.275Z,10.27
2023-03-26T03:33:30.419Z,9.17
2023-03-26T03:35:57.393Z,20.80
2023-03-26T03:38:24.336Z,12.03
2023-03-26T03:40:54.317Z,8.37
2023-03-26T03:43:22.415Z,12.87
2023-03-26T03:46:02.974Z,12.97
2023-03-26T03:48:38.328Z,11.73
2023-03-26T03:51:06.652Z,9.43
2023-03-26T03:53:52.679Z,8.00
2023-03-26T03:56:32.427Z,9.90
2023-03-26T03:59:32.442Z,10.10
2023-03-26T04:01:59.583Z,11.77
2023-03-26T04:04:34.297Z,11.13
2023-03-26T04:07:05.508Z,8.93
2023-03-26T04:09:47.330Z,7.73
2023-03-26T04:12:17.681Z,9.67
2023-03-26T04:14:58.742Z,6.57
2023-03-26T04:17:26.093Z,8.73
2023-03-26T04:19:55.381Z,10.50
2023-03-26T04:22:36.350Z,9.33
2023-03-26T04:25:07.566Z,7.17
2023-03-26T04:27:46.131Z,9.97
2023-03-26T04:30:20.634Z,6.70
2023-03-26T04:32:58.307Z,13.13
2023-03-26T04:35:26.372Z,6.97
2023-03-26T04:37:56.288Z,8.03
2023-03-26T04:40:30.516Z,8.90
2023-03-26T04:43:18.103Z,9.53
2023-03-26T04:45:47.888Z,9.23
2023-03-26T04:48:15.478Z,5.83
2023-03-26T04:50:44.126Z,10.90
2023-03-26T04:53:15.641Z,6.60
2023-03-26T04:56:09.060Z,8.13
2023-03-26T04:59:13.718Z,13.27
2023-03-26T05:01:42.042Z,7.60
2023-03-26T05:04:14.250Z,8.67
2023-03-26T05:06:41.766Z,7.40
2023-03-26T05:09:18.037Z,5.60
2023-03-26T05:12:03.646Z,9.13
2023-03-26T05:14:38.702Z,5.53
2023-03-26T05:17:15.178Z,9.97
2023-03-26T05:19:41.925Z,13.60
2023-03-26T05:22:08.742Z,6.60
2023-03-26T05:24:40.969Z,9.63
2023-03-26T05:27:07.754Z,9.93
2023-03-26T05:29:35.569Z,4.97
2023-03-26T05:32:02.283Z,8.90
2023-03-26T05:34:28.990Z,9.47
2023-03-26T05:36:56.268Z,8.13
2023-03-26T05:39:53.051Z,7.83
2023-03-26T05:42:39.168Z,7.67
2023-03-26T05:45:32.029Z,7.80
2023-03-26T05:48:03.100Z,6.97
2023-03-26T05:50:29.849Z,5.97
2023-03-26T05:52:59.689Z,8.63
2023-03-26T05:56:04.925Z,9.47
2023-03-26T05:58:51.977Z,6.50
2023-03-26T06:01:51.434Z,10.87
2023-03-26T06:04:42.981Z,8.20
2023-03-26T06:07:28.660Z,7.80
2023-03-26T06:10:09.532Z,7.90
2023-03-26T06:12:36.903Z,9.70
2023-03-26T06:15:04.395Z,9.47
2023-03-26T06:17:47.663Z,7.20
2023-03-26T06:20:31.178Z,8.10
2023-03-26T06:22:58.248Z,5.80
2023-03-26T06:25:44.209Z,10.70
2023-03-26T06:28:34.146Z,8.67
2023-03-26T06:31:12.691Z,10.30
2023-03-26T06:33:51.280Z,8.50
2023-03-26T06:36:19.948Z,5.77
2023-03-26T06:38:49.199Z,7.70
2023-03-26T06:41:16.202Z,6.17
2023-03-26T06:44:09.638Z,4.87
2023-03-26T06:47:05.377Z,7.10
2023-03-26T06:49:58.354Z,3.63
2023-03-26T06:52:28.605Z,6.70
2023-03-26T06:55:23.906Z,6.50
2023-03-26T06:58:13.579Z,6.97
2023-03-26T07:00:59.142Z,4.47
2023-03-26T07:03:44.499Z,4.97
2023-03-26T07:06:29.953Z,4.60
2023-03-26T07:09:15.304Z,7.50
2023-03-26T07:12:06.343Z,6.43
2023-03-26T07:15:03.671Z,7.43
2023-03-26T07:17:45.703Z,7.60
2023-03-26T07:20:16.264Z,4.40
2023-03-26T07:22:44.458Z,8.70
2023-03-26T07:25:18.248Z,6.87
2023-03-26T07:28:21.884Z,5.23
2023-03-26T07:31:27.300Z,6.13
2023-03-26T07:34:50.440Z,4.20
2023-03-26T07:37:30.984Z,4.70
2023-03-26T07:40:50.588Z,4.13
2023-03-26T07:44:04.451Z,4.53
2023-03-26T07:46:54.872Z,5.30
2023-03-26T07:49:55.517Z,5.83
2023-03-26T07:52:48.848Z,4.33
2023-03-26T07:56:20.507Z,4.13
2023-03-26T07:59:18.053Z,6.33
2023-03-26T08:02:17.657Z,7.23
2023-03-26T08:04:50.538Z,4.77
2023-03-26T08:08:38.127Z,5.97
2023-03-26T08:11:39.922Z,5.90
2023-03-26T08:14:06.866Z,4.87
2023-03-26T08:16:57.209Z,6.77
2023-03-26T08:19:49.010Z,4.70
2023-03-26T08:22:50.720Z,4.27
2023-03-26T08:25:36.016Z,7.17
2023-03-26T08:28:30.251Z,5.60
2023-03-26T08:30:57.765Z,3.57
2023-03-26T08:33:27.930Z,5.43
2023-03-26T08:35:54.674Z,5.00
2023-03-26T08:38:22.042Z,5.03
2023-03-26T08:41:07.025Z,6.77
2023-03-26T08:43:46.088Z,4.10
2023-03-26T08:46:33.241Z,4.47
2023-03-26T08:49:30.243Z,3.37
2023-03-26T08:52:30.680Z,2.80
2023-03-26T08:55:36.451Z,3.30
2023-03-26T08:58:37.263Z,4.97
2023-03-26T09:01:37.503Z,3.70
2023-03-26T09:04:22.898Z,2.53
2023-03-26T09:07:07.751Z,2.03
2023-03-26T09:09:52.620Z,3.17
2023-03-26T09:12:37.847Z,1.47
2023-03-26T09:15:33.805Z,1.73
2023-03-26T09:18:12.592Z,1.97
2023-03-26T09:20:54.763Z,3.40
2023-03-26T09:23:28.971Z,1.50
2023-03-26T09:26:04.851Z,2.27
2023-03-26T09:29:11.949Z,1.07
2023-03-26T09:31:41.782Z,1.33
2023-03-26T09:34:26.243Z,2.50
2023-03-26T09:37:19.679Z,0.93
2023-03-26T09:40:14.220Z,1.77
2023-03-26T09:42:44.412Z,2.77
2023-03-26T09:45:38.725Z,1.83
2023-03-26T09:48:24.325Z,1.90
2023-03-26T09:50:54.025Z,2.80
2023-03-26T09:53:23.947Z,2.17
2023-03-26T09:56:16.246Z,3.10
2023-03-26T09:58:56.698Z,2.30
2023-03-26T10:01:42.354Z,3.30
2023-03-26T10:04:38.500Z,3.30
2023-03-26T10:07:40.649Z,3.03
2023-03-26T10:10:35.685Z,3.00
2023-03-26T10:13:16.067Z,6.03
2023-03-26T10:16:21.165Z,2.90
2023-03-26T10:19:21.862Z,6.03
2023-03-26T10:22:10.629Z,9.73
2023-03-26T10:24:46.733Z,5.43
2023-03-26T10:27:30.576Z,2.73
2023-03-26T10:30:15.953Z,4.03
2023-03-26T10:32:45.239Z,6.30
2023-03-26T10:35:37.142Z,5.07
2023-03-26T10:38:30.016Z,3.30
2023-03-26T10:41:25.196Z,4.63
2023-03-26T10:44:05.141Z,5.70
2023-03-26T10:46:47.251Z,3.60
2023-03-26T10:49:27.130Z,4.77
2023-03-26T10:52:23.093Z,5.30
2023-03-26T10:55:03.429Z,5.57
2023-03-26T10:57:38.017Z,4.27
2023-03-26T11:00:25.526Z,4.67
2023-03-26T11:03:17.363Z,6.20
2023-03-26T11:06:11.895Z,4.33
2023-03-26T11:09:10.136Z,5.60
2023-03-26T11:11:50.308Z,4.97
2023-03-26T11:14:34.720Z,4.93
2023-03-26T11:17:41.157Z,6.20
2023-03-26T11:20:11.180Z,4.57
2023-03-26T11:22:46.721Z,2.87
2023-03-26T11:25:36.835Z,4.13
2023-03-26T11:28:13.915Z,6.77
2023-03-26T11:30:46.723Z,4.90
2023-03-26T11:33:21.328Z,4.20
2023-03-26T11:35:51.364Z,5.73
2023-03-26T11:38:37.247Z,4.73
2023-03-26T11:41:12.587Z,5.60
2023-03-26T11:43:54.251Z,5.57
2023-03-26T11:46:23.702Z,6.63
2023-03-26T11:48:58.130Z,4.80
2023-03-26T11:51:34.507Z,5.70
2023-03-26T11:54:03.037Z,5.57
2023-03-26T11:56:35.877Z,4.90
2023-03-26T11:59:21.661Z,2.53
2023-03-26T12:01:52.237Z,3.60
2023-03-26T12:04:40.707Z,4.63
2023-03-26T12:07:14.238Z,3.50
2023-03-26T12:10:18.447Z,3.83
2023-03-26T12:12:47.494Z,5.17
2023-03-26T12:15:15.781Z,4.57
2023-03-26T12:17:43.131Z,2.43
2023-03-26T12:20:42.553Z,6.60
2023-03-26T12:23:44.394Z,4.20
2023-03-26T12:26:16.355Z,4.60
2023-03-26T12:28:50.495Z,5.53
2023-03-26T12:31:19.046Z,2.57
2023-03-26T12:34:05.973Z,5.03
2023-03-26T12:36:36.025Z,4.87
2023-03-26T12:40:08.931Z,6.83
2023-03-26T12:44:46.607Z,8.80
2023-03-26T12:45:14.770Z,6.30
2023-03-26T12:48:02.259Z,5.40
2023-03-26T12:51:10.949Z,4.97
2023-03-26T12:53:58.518Z,7.47
2023-03-26T12:56:38.469Z,3.33
2023-03-26T12:59:18.421Z,4.63
2023-03-26T13:02:25.073Z,5.23
2023-03-26T13:05:19.620Z,5.50
2023-03-26T13:07:52.432Z,4.97
2023-03-26T13:10:37.881Z,5.67
2023-03-26T13:13:38.735Z,7.10
2023-03-26T13:16:24.355Z,8.07
2023-03-26T13:18:57.063Z,7.07
2023-03-26T13:22:12.870Z,5.00
2023-03-26T13:25:09.293Z,5.00
2023-03-26T13:28:14.497Z,5.07
2023-03-26T13:31:10.443Z,3.70
2023-03-26T13:33:54.751Z,5.50
2023-03-26T13:36:39.139Z,5.27
2023-03-26T13:39:22.301Z,4.33
2023-03-26T13:41:59.538Z,6.10
2023-03-26T13:44:31.890Z,3.77
2023-03-26T13:47:10.546Z,4.13
2023-03-26T13:49:40.214Z,5.80
2023-03-26T13:52:32.882Z,5.30
2023-03-26T13:55:30.489Z,2.97
2023-03-26T13:58:04.873Z,3.63
2023-03-26T14:01:04.603Z,2.60
2023-03-26T14:03:37.545Z,6.60
2023-03-26T14:06:11.490Z,3.90
2023-03-26T14:08:44.657Z,2.90
2023-03-26T14:11:32.900Z,4.40
2023-03-26T14:14:13.827Z,3.13
2023-03-26T14:16:46.874Z,3.17
2023-03-26T14:19:54.101Z,3.37
2023-03-26T14:22:39.687Z,2.80
2023-03-26T14:25:28.084Z,3.83
2023-03-26T14:27:57.594Z,2.80
2023-03-26T14:30:36.093Z,2.90
2023-03-26T14:33:38.668Z,4.97
2023-03-26T14:36:34.437Z,2.27
2023-03-26T14:39:13.036Z,2.90
2023-03-26T14:41:53.293Z,3.20
2023-03-26T14:44:52.493Z,3.10
2023-03-26T14:47:21.364Z,1.50
2023-03-26T14:50:09.193Z,2.37
2023-03-26T14:52:49.964Z,3.13
2023-03-26T14:55:22.925Z,3.63
2023-03-26T14:58:03.859Z,3.03
2023-03-26T15:01:04.366Z,2.47
2023-03-26T15:04:08.510Z,3.20
2023-03-26T15:06:47.332Z,3.10
2023-03-26T15:09:32.197Z,2.83
2023-03-26T15:12:33.398Z,1.83
2023-03-26T15:15:25.945Z,4.87
2023-03-26T15:18:13.227Z,2.70
2023-03-26T15:21:17.652Z,1.23
2023-03-26T15:23:53.230Z,2.33
2023-03-26T15:26:50.952Z,1.97
2023-03-26T15:29:56.377Z,1.67
2023-03-26T15:33:00.588Z,0.97
2023-03-26T15:35:45.868Z,2.27
2023-03-26T15:38:35.524Z,3.00
2023-03-26T15:41:17.462Z,1.30
2023-03-26T15:46:38.045Z,4.23
2023-03-26T15:49:27.422Z,4.40
2023-03-26T15:52:06.321Z,3.53
2023-03-26T15:54:46.765Z,3.10
2023-03-26T15:57:43.845Z,2.43
2023-03-26T16:00:34.398Z,3.97
2023-03-26T16:03:10.064Z,3.23
2023-03-26T16:06:00.002Z,2.50
2023-03-26T16:08:38.767Z,2.70
2023-03-26T16:11:12.520Z,2.93
2023-03-26T16:13:40.888Z,3.87
2023-03-26T16:16:16.422Z,3.63
2023-03-26T16:19:16.882Z,2.60
2023-03-26T16:21:54.957Z,2.13
2023-03-26T16:24:27.994Z,1.77
2023-03-26T16:27:10.549Z,4.27
2023-03-26T16:30:31.849Z,3.33
2023-03-26T16:33:17.598Z,4.30
2023-03-26T16:35:59.578Z,4.33
2023-03-26T16:38:27.260Z,2.10
2023-03-26T16:41:22.550Z,6.00
2023-03-26T16:44:02.187Z,4.37
2023-03-26T16:46:38.130Z,3.83
2023-03-26T16:49:28.511Z,3.33
2023-03-26T16:52:03.454Z,2.30
2023-03-26T16:54:32.816Z,2.73
2023-03-26T16:57:26.120Z,3.70
2023-03-26T17:00:16.371Z,2.03
2023-03-26T17:03:06.369Z,2.67
2023-03-26T17:05:36.696Z,3.73
2023-03-26T17:08:36.332Z,3.67
2023-03-26T17:11:06.637Z,2.30
2023-03-26T17:13:44.762Z,2.93
2023-03-26T17:16:29.758Z,3.53
2023-03-26T17:19:46.728Z,3.40
2023-03-26T17:22:35.358Z,3.00
2023-03-26T17:25:08.320Z,4.73
2023-03-26T17:27:57.195Z,2.30
2023-03-26T17:30:41.087Z,2.10
2023-03-26T17:33:23.213Z,2.87
2023-03-26T17:35:51.666Z,3.10
2023-03-26T17:38:18.308Z,2.87
2023-03-26T17:40:55.164Z,2.83
2023-03-26T17:43:41.913Z,2.73
2023-03-26T17:46:33.649Z,4.47
2023-03-26T17:49:13.249Z,1.90
2023-03-26T17:51:56.610Z,2.37
2023-03-26T17:54:33.703Z,2.83
2023-03-26T17:57:12.515Z,3.47
2023-03-26T17:59:40.951Z,3.13
2023-03-26T18:02:14.200Z,3.27
2023-03-26T18:04:45.540Z,3.33
2023-03-26T18:07:37.504Z,2.60
2023-03-26T18:10:10.571Z,4.00
2023-03-26T18:12:54.921Z,3.37
2023-03-26T18:15:36.672Z,3.20
2023-03-26T18:18:30.553Z,4.40
2023-03-26T18:21:00.831Z,2.53
2023-03-26T18:23:35.550Z,4.13
2023-03-26T18:26:16.153Z,4.53
2023-03-26T18:28:45.844Z,3.83
2023-03-26T18:31:23.238Z,3.13
2023-03-26T18:33:54.272Z,2.83
2023-03-26T18:36:24.510Z,1.87
2023-03-26T18:38:57.790Z,5.47
2023-03-26T18:41:34.239Z,2.10
2023-03-26T18:44:04.136Z,3.77
2023-03-26T18:46:32.479Z,3.13
2023-03-26T18:49:02.932Z,4.33
2023-03-26T18:51:31.829Z,2.17
2023-03-26T18:54:02.676Z,3.30
2023-03-26T18:56:43.587Z,3.43
2023-03-26T18:59:28.826Z,3.63
2023-03-26T19:01:57.595Z,3.80
2023-03-26T19:04:27.259Z,2.90
2023-03-26T19:06:55.998Z,2.40
2023-03-26T19:09:31.604Z,3.30
2023-03-26T19:12:06.366Z,4.40
2023-03-26T19:14:36.810Z,2.03
2023-03-26T19:17:06.948Z,2.97
2023-03-26T19:19:37.370Z,1.60
2023-03-26T19:22:06.397Z,2.00
2023-03-26T19:24:34.050Z,1.57
2023-03-26T19:27:01.038Z,1.80
2023-03-26T19:29:32.438Z,2.20
2023-03-26T19:32:16.454Z,4.43
2023-03-26T19:34:44.851Z,2.67
2023-03-26T19:37:19.487Z,3.93
2023-03-26T19:39:51.143Z,2.23
2023-03-26T19:42:26.433Z,1.20
2023-03-26T19:44:54.104Z,2.33
2023-03-26T19:47:48.443Z,1.70
2023-03-26T19:50:29.034Z,3.53
2023-03-26T19:53:17.157Z,1.10
2023-03-26T19:55:59.765Z,1.37
2023-03-26T19:58:27.329Z,2.33
2023-03-26T20:00:56.089Z,0.97
2023-03-26T20:03:27.829Z,1.60
2023-03-26T20:05:54.918Z,1.63
2023-03-26T20:08:26.802Z,2.07
2023-03-26T20:10:55.590Z,3.17
2023-03-26T20:13:22.424Z,1.43
2023-03-26T20:16:06.043Z,3.03
2023-03-26T20:18:34.227Z,1.30
2023-03-26T20:21:00.891Z,2.90
2023-03-26T20:23:28.765Z,2.60
2023-03-26T20:25:55.926Z,2.57
2023-03-26T20:28:24.187Z,4.03
2023-03-26T20:30:54.267Z,3.43
2023-03-26T20:33:26.985Z,4.60
2023-03-26T20:35:55.337Z,3.63
2023-03-26T20:38:36.556Z,3.23
2023-03-26T20:41:06.813Z,3.70
2023-03-26T20:43:33.459Z,2.63
2023-03-26T20:46:00.603Z,3.73
2023-03-26T20:48:27.490Z,3.27
2023-03-26T20:50:54.142Z,2.27
2023-03-26T20:53:20.875Z,1.87
2023-03-26T20:55:49.223Z,2.37
2023-03-26T20:58:31.033Z,2.70
2023-03-26T21:01:02.789Z,2.57
2023-03-26T21:03:29.467Z,1.40
2023-03-26T21:05:59.878Z,2.03
2023-03-26T21:08:30.125Z,1.40
2023-03-26T21:11:01.955Z,1.40
2023-03-26T21:13:45.869Z,1.10
2023-03-26T21:16:13.248Z,1.60
2023-03-26T21:18:40.155Z,1.70
2023-03-26T21:21:30.702Z,1.33
2023-03-26T21:24:21.783Z,1.80
2023-03-26T21:27:14.532Z,2.00
2023-03-26T21:29:41.800Z,1.77
2023-03-26T21:32:11.122Z,1.40
2023-03-26T21:34:42.070Z,1.83
2023-03-26T21:37:15.440Z,1.40
2023-03-26T21:39:44.792Z,1.30
2023-03-26T21:42:12.853Z,1.23
2023-03-26T21:44:39.933Z,1.43
2023-03-26T21:47:09.789Z,1.20
2023-03-26T21:49:37.308Z,1.50
2023-03-26T21:52:04.492Z,1.00
2023-03-26T21:54:32.682Z,1.63
2023-03-26T21:57:02.200Z,1.53
2023-03-26T21:59:35.058Z,1.10
2023-03-26T22:02:06.512Z,2.60
2023-03-26T22:04:42.177Z,1.60
2023-03-26T22:07:17.837Z,1.47
2023-03-26T22:09:45.103Z,1.37
2023-03-26T22:12:12.507Z,1.70
2023-03-26T22:14:39.215Z,1.50
2023-03-26T22:17:06.651Z,1.40
2023-03-26T22:19:34.630Z,1.73
2023-03-26T22:22:01.660Z,1.43
2023-03-26T22:24:29.252Z,1.43
2023-03-26T22:26:56.058Z,1.37
2023-03-26T22:29:22.914Z,1.00
2023-03-26T22:31:49.589Z,1.73
2023-03-26T22:34:16.600Z,1.83
2023-03-26T22:36:43.681Z,1.50
2023-03-26T22:39:10.691Z,1.90
2023-03-26T22:41:37.437Z,2.87
2023-03-26T22:44:16.967Z,2.00
2023-03-26T22:46:48.958Z,2.30
2023-03-26T22:49:16.421Z,1.87
2023-03-26T22:51:43.480Z,2.00
2023-03-26T22:54:10.204Z,2.50
2023-03-26T22:56:37.163Z,5.07
2023-03-26T22:59:04.122Z,3.83
2023-03-26T23:01:31.065Z,2.73
2023-03-26T23:03:58.326Z,2.10
2023-03-26T23:06:25.113Z,3.50
2023-03-26T23:08:52.050Z,2.70
2023-03-26T23:11:20.602Z,2.43
2023-03-26T23:13:47.926Z,5.07
2023-03-26T23:16:16.650Z,2.87
2023-03-26T23:18:44.082Z,5.03
2023-03-26T23:21:16.400Z,4.60
2023-03-26T23:23:43.060Z,5.43
2023-03-26T23:26:10.735Z,5.67
2023-03-26T23:28:38.337Z,6.43
2023-03-26T23:31:08.929Z,6.17
2023-03-26T23:33:38.007Z,5.00
2023-03-26T23:36:08.973Z,7.77
2023-03-26T23:38:43.743Z,6.07
2023-03-26T23:41:14.806Z,7.67
2023-03-26T23:43:53.710Z,10.60
2023-03-26T23:46:24.409Z,11.10
2023-03-26T23:48:51.826Z,9.27
2023-03-26T23:51:20.073Z,10.00
2023-03-26T23:53:47.734Z,13.03
2023-03-26T23:56:15.318Z,10.63
2023-03-26T23:58:42.087Z,13.60
